Time;durP1;ratioP1;P1;durP2;ratioP2;P2;SDS_P1;SDS_P2;PMS_P1;PMS_P2;Temp;Humidity;BMP_temperature;BMP_pressure;BME280_temperature;BME280_humidity;BME280_pressure;Samples;Min_cycle;Max_cycle;Signal;HPM_P1;HPM_P2
2021/09/30 00:00:38;;;;;;;152.77;144.82;;;11.70;99.90;;;;;;5068854;28;20203;-76
2021/09/30 00:03:05;;;;;;;144.05;137.05;;;11.70;99.90;;;;;;5066763;28;20268;-76
2021/09/30 00:05:32;;;;;;;131.40;124.95;;;11.70;99.90;;;;;;5065907;28;20231;-76
2021/09/30 00:07:59;;;;;;;131.05;124.45;;;11.60;99.90;;;;;;5065629;28;20206;-76
2021/09/30 00:10:27;;;;;;;128.48;122.18;;;11.60;99.90;;;;;;5066142;28;20205;-76
2021/09/30 00:12:58;;;;;;;119.70;113.47;;;11.60;99.90;;;;;;5065995;28;20313;-76
2021/09/30 00:15:34;;;;;;;109.78;104.38;;;11.60;99.90;;;;;;5071221;28;20209;-76
2021/09/30 00:34:46;;;;;;;146.55;138.88;;;11.50;99.90;;;;;;5003583;28;20211;-76
2021/09/30 00:40:17;;;;;;;136.88;129.98;;;11.50;99.90;;;;;;5012256;28;20246;-76
2021/09/30 00:48:57;;;;;;;131.20;123.53;;;11.40;99.90;;;;;;5006692;28;20683;-76
2021/09/30 00:51:30;;;;;;;121.78;115.30;;;11.40;99.90;;;;;;5007005;28;20238;-76
2021/09/30 00:54:19;;;;;;;138.35;130.85;;;11.40;99.90;;;;;;5012644;28;20230;-76
2021/09/30 02:29:54;;;;;;;148.30;140.23;;;11.00;99.90;;;;;;5050958;28;20260;-76
2021/09/30 03:00:16;;;;;;;171.02;161.30;;;11.00;99.90;;;;;;5044219;28;20216;-75
2021/09/30 03:02:47;;;;;;;148.32;140.52;;;11.00;99.90;;;;;;5055648;28;20225;-75
2021/09/30 03:05:15;;;;;;;136.88;129.52;;;11.00;99.90;;;;;;5070508;28;20289;-75
2021/09/30 03:07:45;;;;;;;169.25;159.68;;;11.00;99.90;;;;;;5067265;28;20240;-75
2021/09/30 03:10:13;;;;;;;168.85;158.68;;;11.00;99.90;;;;;;5066419;28;20703;-74
2021/09/30 03:12:41;;;;;;;139.85;132.45;;;10.90;99.90;;;;;;5072180;28;20333;-75
2021/09/30 03:15:15;;;;;;;159.05;150.57;;;10.90;99.90;;;;;;5067058;28;20205;-75
2021/09/30 03:17:48;;;;;;;152.88;144.63;;;10.80;99.90;;;;;;5072166;28;20225;-75
2021/09/30 03:20:33;;;;;;;169.82;160.52;;;10.80;99.90;;;;;;5066746;28;20222;-75
2021/09/30 03:23:02;;;;;;;174.70;164.32;;;10.80;99.90;;;;;;5070115;28;20192;-75
2021/09/30 03:25:30;;;;;;;168.77;159.60;;;10.80;99.90;;;;;;5073456;28;20193;-75
2021/09/30 03:27:58;;;;;;;160.70;151.52;;;10.80;99.90;;;;;;5077220;28;20200;-75
2021/09/30 03:30:27;;;;;;;144.57;136.23;;;10.80;99.90;;;;;;5068236;28;20241;-75
2021/09/30 03:32:56;;;;;;;148.23;140.23;;;10.80;99.90;;;;;;5070423;28;20246;-75
2021/09/30 03:35:24;;;;;;;135.57;128.18;;;10.80;99.90;;;;;;5066639;28;20627;-74
2021/09/30 03:37:51;;;;;;;158.15;148.90;;;10.80;99.90;;;;;;5071934;28;20211;-75
2021/09/30 03:40:19;;;;;;;151.23;142.93;;;10.70;99.90;;;;;;5072064;28;20230;-75
2021/09/30 03:42:46;;;;;;;157.88;148.98;;;10.70;99.90;;;;;;5072806;28;20687;-75
2021/09/30 03:45:14;;;;;;;148.13;139.85;;;10.70;99.90;;;;;;5066534;28;20201;-75
2021/09/30 03:47:41;;;;;;;166.70;157.65;;;10.70;99.90;;;;;;5065488;28;20228;-75
2021/09/30 03:50:15;;;;;;;174.35;163.55;;;10.70;99.90;;;;;;5066193;28;20200;-75
2021/09/30 03:52:55;;;;;;;169.45;158.80;;;10.70;99.90;;;;;;5071789;28;20229;-75
2021/09/30 03:55:32;;;;;;;165.35;155.82;;;10.60;99.90;;;;;;5071536;28;20204;-75
2021/09/30 04:00:44;;;;;;;175.43;165.65;;;10.70;99.90;;;;;;5065432;28;20260;-75
2021/09/30 04:03:11;;;;;;;167.35;157.95;;;10.70;99.90;;;;;;5070947;28;20234;-75
2021/09/30 04:05:38;;;;;;;163.68;154.52;;;10.60;99.90;;;;;;5065601;28;20610;-75
2021/09/30 04:08:05;;;;;;;154.82;145.52;;;10.60;99.90;;;;;;5065993;28;20205;-75
2021/09/30 04:10:34;;;;;;;150.57;142.48;;;10.60;99.90;;;;;;5065535;28;20208;-75
2021/09/30 04:13:00;;;;;;;148.63;140.65;;;10.60;99.90;;;;;;5067946;28;20224;-75
2021/09/30 04:15:27;;;;;;;153.82;145.15;;;10.60;99.90;;;;;;5069342;28;20828;-75
2021/09/30 04:17:54;;;;;;;139.00;130.88;;;10.50;99.90;;;;;;5069530;28;20202;-75
2021/09/30 04:20:21;;;;;;;163.05;153.85;;;10.50;99.90;;;;;;5069659;28;20233;-75
2021/09/30 04:22:48;;;;;;;160.10;149.98;;;10.50;99.90;;;;;;5069581;28;20209;-75
2021/09/30 04:25:15;;;;;;;159.35;150.00;;;10.50;99.90;;;;;;5073087;28;20259;-75
2021/09/30 04:27:43;;;;;;;174.30;164.48;;;10.50;99.90;;;;;;5070206;28;20201;-75
2021/09/30 04:30:11;;;;;;;188.73;177.43;;;10.40;99.90;;;;;;5071861;28;20294;-75
2021/09/30 04:32:38;;;;;;;167.63;158.18;;;10.40;99.90;;;;;;5081187;28;20201;-75
2021/09/30 04:35:06;;;;;;;184.15;172.80;;;10.40;99.90;;;;;;5077793;28;20219;-75
2021/09/30 04:37:33;;;;;;;178.05;167.20;;;10.40;99.90;;;;;;5070616;28;20255;-76
2021/09/30 04:40:00;;;;;;;198.40;186.50;;;10.40;99.90;;;;;;5073910;28;20201;-76
2021/09/30 04:42:27;;;;;;;185.75;174.90;;;10.40;99.90;;;;;;5069648;28;20204;-75
2021/09/30 04:44:55;;;;;;;170.40;159.27;;;10.40;99.90;;;;;;5069300;28;20231;-75
2021/09/30 04:47:22;;;;;;;145.95;137.68;;;10.30;99.90;;;;;;5069086;28;20201;-75
2021/09/30 04:49:50;;;;;;;164.98;155.18;;;10.40;99.90;;;;;;5069217;28;20251;-75
2021/09/30 04:52:17;;;;;;;131.13;123.78;;;10.30;99.90;;;;;;5078659;28;20208;-75
2021/09/30 04:54:44;;;;;;;171.85;162.05;;;10.30;99.90;;;;;;5069080;28;20237;-75
2021/09/30 04:57:10;;;;;;;171.18;160.45;;;10.30;99.90;;;;;;5068950;28;20201;-75
2021/09/30 04:59:37;;;;;;;206.00;193.45;;;10.30;99.90;;;;;;5068818;28;20197;-75
2021/09/30 05:02:06;;;;;;;169.77;160.18;;;10.30;99.90;;;;;;5069176;28;20278;-75
2021/09/30 05:04:33;;;;;;;205.32;192.98;;;10.30;99.90;;;;;;5068717;28;20208;-75
2021/09/30 05:07:00;;;;;;;186.63;174.50;;;10.30;99.90;;;;;;5068416;28;20329;-75
2021/09/30 05:09:28;;;;;;;187.65;175.07;;;10.30;99.90;;;;;;5068497;28;20202;-75
2021/09/30 05:11:57;;;;;;;203.15;190.10;;;10.30;99.90;;;;;;5073116;28;20288;-75
2021/09/30 05:14:24;;;;;;;195.43;183.63;;;10.20;99.90;;;;;;5074568;28;20221;-75
2021/09/30 05:16:52;;;;;;;203.20;190.23;;;10.20;99.90;;;;;;5071932;28;20232;-75
2021/09/30 05:19:21;;;;;;;206.68;193.43;;;10.20;99.90;;;;;;5068553;28;20200;-75
2021/09/30 05:21:48;;;;;;;196.82;184.57;;;10.20;99.90;;;;;;5071519;28;20197;-75
2021/09/30 05:24:16;;;;;;;205.88;192.10;;;10.20;99.90;;;;;;5068263;28;20201;-76
2021/09/30 05:26:43;;;;;;;205.93;192.85;;;10.20;99.90;;;;;;5075385;28;20209;-76
2021/09/30 05:29:39;;;;;;;182.50;170.93;;;10.20;99.90;;;;;;5076950;28;20223;-76
2021/09/30 05:32:07;;;;;;;216.75;203.35;;;10.10;99.90;;;;;;5068102;28;20228;-76
2021/09/30 05:34:35;;;;;;;182.98;171.07;;;10.20;99.90;;;;;;5072754;28;20228;-75
2021/09/30 05:37:02;;;;;;;207.77;195.52;;;10.10;99.90;;;;;;5068416;28;20463;-76
2021/09/30 05:39:29;;;;;;;191.63;180.23;;;10.10;99.90;;;;;;5068785;28;20197;-76
2021/09/30 05:41:57;;;;;;;184.07;171.95;;;10.10;99.90;;;;;;5068255;28;20201;-76
2021/09/30 05:44:26;;;;;;;199.27;186.50;;;10.10;99.90;;;;;;5068322;28;20209;-76
2021/09/30 05:46:55;;;;;;;191.68;180.10;;;10.20;99.90;;;;;;5080177;28;20197;-75
2021/09/30 05:49:23;;;;;;;184.40;173.25;;;10.10;99.90;;;;;;5069010;28;20248;-75
2021/09/30 05:51:52;;;;;;;159.95;150.07;;;10.10;99.90;;;;;;5071457;28;20229;-75
2021/09/30 05:54:19;;;;;;;203.85;191.60;;;10.00;99.90;;;;;;5067570;28;20238;-75
2021/09/30 05:56:46;;;;;;;184.10;172.52;;;10.00;99.90;;;;;;5067968;28;20209;-75
2021/09/30 05:59:16;;;;;;;163.32;152.75;;;10.00;99.90;;;;;;5067792;28;20209;-75
2021/09/30 06:10:19;;;;;;;173.55;163.07;;;10.00;99.90;;;;;;5016659;28;20230;-75
2021/09/30 06:12:49;;;;;;;183.90;172.77;;;10.10;99.90;;;;;;5010991;28;20240;-76
2021/09/30 06:15:24;;;;;;;162.85;152.13;;;10.00;99.90;;;;;;5010245;28;20231;-76
2021/09/30 06:17:52;;;;;;;167.10;155.93;;;10.00;99.90;;;;;;5005903;28;20242;-76
2021/09/30 06:20:19;;;;;;;192.10;179.70;;;10.10;99.90;;;;;;5010024;28;20206;-76
2021/09/30 06:22:48;;;;;;;186.65;175.10;;;10.10;99.90;;;;;;5010170;28;20274;-75
2021/09/30 06:25:15;;;;;;;184.35;172.48;;;10.10;99.90;;;;;;5005376;28;20218;-75
2021/09/30 06:27:42;;;;;;;170.55;160.35;;;10.20;99.90;;;;;;5011001;28;20211;-75
2021/09/30 06:30:10;;;;;;;178.75;168.05;;;10.20;99.90;;;;;;5005482;28;20760;-75
2021/09/30 06:32:37;;;;;;;172.43;161.98;;;10.20;99.90;;;;;;5005605;28;20207;-75
2021/09/30 06:35:04;;;;;;;171.52;160.80;;;10.30;99.90;;;;;;5008967;28;20230;-75
2021/09/30 06:37:32;;;;;;;162.38;152.82;;;10.30;99.90;;;;;;5011771;28;20202;-77
2021/09/30 06:40:00;;;;;;;192.43;181.25;;;10.40;99.90;;;;;;5008473;28;20205;-74
2021/09/30 06:42:27;;;;;;;180.02;168.77;;;10.40;99.90;;;;;;5004476;28;20211;-75
2021/09/30 06:44:54;;;;;;;171.68;160.82;;;10.40;99.90;;;;;;5004878;28;20454;-75
2021/09/30 06:47:21;;;;;;;191.25;179.73;;;10.40;99.90;;;;;;5036760;28;20204;-75
2021/09/30 06:49:48;;;;;;;175.82;165.60;;;10.50;99.90;;;;;;5046879;28;20197;-75
2021/09/30 06:52:15;;;;;;;173.75;162.52;;;10.50;99.90;;;;;;5052717;28;20267;-75
2021/09/30 06:54:42;;;;;;;209.35;196.73;;;10.60;99.90;;;;;;5046726;28;20225;-74
2021/09/30 06:57:10;;;;;;;162.13;152.40;;;10.60;99.90;;;;;;5054191;28;20205;-76
2021/09/30 06:59:37;;;;;;;193.73;182.02;;;10.60;99.90;;;;;;5051013;28;20214;-75
2021/09/30 07:02:07;;;;;;;156.55;147.60;;;10.60;99.90;;;;;;5049384;28;20197;-72
2021/09/30 07:04:35;;;;;;;180.48;169.35;;;10.70;99.90;;;;;;5049291;28;20202;-72
2021/09/30 07:07:03;;;;;;;203.98;191.40;;;10.70;99.90;;;;;;5052833;28;20203;-72
2021/09/30 07:09:31;;;;;;;198.15;186.10;;;10.70;99.90;;;;;;5053999;28;20197;-72
2021/09/30 07:11:59;;;;;;;169.77;158.95;;;10.80;99.90;;;;;;5048625;28;20200;-72
2021/09/30 07:14:27;;;;;;;202.93;191.02;;;10.80;99.90;;;;;;5045929;28;20220;-72
2021/09/30 07:16:56;;;;;;;189.98;178.63;;;10.70;99.90;;;;;;5047009;28;20206;-73
2021/09/30 07:19:24;;;;;;;207.73;195.65;;;10.80;99.90;;;;;;5056534;28;20205;-72
2021/09/30 07:21:52;;;;;;;174.35;162.45;;;10.80;99.90;;;;;;5051832;28;20214;-72
2021/09/30 07:24:19;;;;;;;179.65;168.60;;;10.80;99.90;;;;;;5045759;28;20260;-73
2021/09/30 07:26:46;;;;;;;193.95;182.48;;;10.90;99.90;;;;;;5045922;28;20202;-73
2021/09/30 07:29:13;;;;;;;158.35;148.60;;;11.00;99.90;;;;;;5047741;28;21011;-73
2021/09/30 07:31:41;;;;;;;183.30;172.68;;;11.00;99.90;;;;;;5065442;28;20205;-72
2021/09/30 07:34:11;;;;;;;190.18;178.93;;;11.10;99.90;;;;;;5065246;28;20224;-72
2021/09/30 07:36:39;;;;;;;125.18;118.97;;;11.20;99.90;;;;;;5067745;28;21070;-73
2021/09/30 07:39:06;;;;;;;182.30;172.80;;;11.20;99.90;;;;;;5065555;28;20194;-73
2021/09/30 07:41:34;;;;;;;157.82;148.52;;;11.30;99.90;;;;;;5066303;28;20202;-75
2021/09/30 07:44:03;;;;;;;152.20;143.75;;;11.50;99.90;;;;;;5072831;28;20206;-74
2021/09/30 07:46:30;;;;;;;154.75;146.50;;;11.90;99.90;;;;;;5066477;28;20225;-74
2021/09/30 07:49:00;;;;;;;168.65;159.35;;;12.40;99.90;;;;;;5069109;28;20228;-74
2021/09/30 07:51:27;;;;;;;169.32;160.10;;;13.00;99.90;;;;;;5075936;28;20214;-74
2021/09/30 07:53:54;;;;;;;143.70;136.50;;;13.60;99.90;;;;;;5083978;28;20236;-75
2021/09/30 07:56:22;;;;;;;159.70;151.75;;;14.10;99.90;;;;;;5073286;28;20202;-77
2021/09/30 07:58:49;;;;;;;149.32;141.50;;;14.40;99.90;;;;;;5069819;28;20203;-77
2021/09/30 08:01:16;;;;;;;145.23;137.73;;;14.70;99.90;;;;;;5070612;28;20202;-77
2021/09/30 08:03:44;;;;;;;145.02;137.90;;;15.20;99.90;;;;;;5075186;28;20223;-77
2021/09/30 08:06:27;;;;;;;110.88;105.18;;;15.50;99.90;;;;;;5081824;28;20566;-77
2021/09/30 08:09:02;;;;;;;121.72;115.65;;;16.00;99.90;;;;;;5070511;28;20261;-77
2021/09/30 08:14:10;;;;;;;104.40;98.43;;;16.30;99.90;;;;;;5070226;28;20237;-78
2021/09/30 08:16:37;;;;;;;85.65;81.43;;;16.50;99.90;;;;;;5080010;28;20206;-77
2021/09/30 08:19:04;;;;;;;107.57;102.03;;;16.80;99.90;;;;;;5068902;28;20751;-77
2021/09/30 08:21:33;;;;;;;112.93;107.47;;;17.30;99.90;;;;;;5070344;28;20245;-77
2021/09/30 08:24:00;;;;;;;120.80;114.53;;;17.80;99.90;;;;;;5081077;28;20211;-78
2021/09/30 08:31:50;;;;;;;65.03;60.63;;;19.20;99.90;;;;;;5080996;28;20204;-77
2021/09/30 08:34:17;;;;;;;59.40;56.05;;;19.50;99.90;;;;;;5072239;28;20228;-78
2021/09/30 08:36:45;;;;;;;41.88;39.33;;;19.90;99.90;;;;;;5074365;28;20749;-78
2021/09/30 08:39:13;;;;;;;25.75;23.52;;;20.10;99.90;;;;;;5070661;28;20204;-78
2021/09/30 08:41:40;;;;;;;31.52;29.52;;;20.00;99.90;;;;;;5075434;28;20209;-77
2021/09/30 08:44:08;;;;;;;27.73;25.52;;;20.10;99.90;;;;;;5079197;28;20226;-78
2021/09/30 08:46:36;;;;;;;31.25;28.70;;;20.20;99.90;;;;;;5069963;28;20207;-77
2021/09/30 08:51:47;;;;;;;12.40;11.50;;;20.10;99.90;;;;;;5085052;28;20582;-78
2021/09/30 08:54:14;;;;;;;7.95;7.22;;;19.70;99.90;;;;;;5070442;28;20218;-78
2021/09/30 08:56:41;;;;;;;18.58;17.08;;;19.50;99.90;;;;;;5077522;28;20210;-77
2021/09/30 08:59:13;;;;;;;6.60;2.40;;;19.50;99.90;;;;;;5068534;28;20784;-75
2021/09/30 09:01:40;;;;;;;7.60;6.88;;;19.30;99.90;;;;;;5079884;28;20210;-75
2021/09/30 09:04:18;;;;;;;13.07;11.98;;;19.30;99.90;;;;;;5073770;28;20212;-75
2021/09/30 09:06:49;;;;;;;14.43;13.13;;;19.40;99.90;;;;;;5078435;28;20262;-74
2021/09/30 09:09:24;;;;;;;20.27;18.85;;;19.50;99.90;;;;;;5080956;28;20210;-74
2021/09/30 09:11:52;;;;;;;16.67;15.70;;;19.50;99.90;;;;;;5071584;28;20199;-75
2021/09/30 09:14:24;;;;;;;27.27;25.65;;;19.50;99.90;;;;;;5069486;28;20227;-74
2021/09/30 09:16:56;;;;;;;28.83;26.80;;;19.80;99.90;;;;;;5068766;28;20208;-74
2021/09/30 09:19:35;;;;;;;19.83;18.70;;;20.10;99.90;;;;;;5072578;28;20208;-74
2021/09/30 09:22:15;;;;;;;45.70;42.97;;;20.00;99.90;;;;;;5074994;28;20205;-74
2021/09/30 09:24:58;;;;;;;32.05;30.13;;;20.00;99.90;;;;;;5068539;28;20228;-75
2021/09/30 09:27:26;;;;;;;24.42;23.13;;;20.00;99.90;;;;;;5069192;28;20235;-78
2021/09/30 09:29:53;;;;;;;17.67;16.40;;;19.80;99.90;;;;;;5070835;28;21043;-77
2021/09/30 09:32:20;;;;;;;33.72;31.75;;;19.70;99.90;;;;;;5075104;28;20249;-78
2021/09/30 09:34:47;;;;;;;27.58;25.52;;;19.80;99.90;;;;;;5073839;28;20739;-76
2021/09/30 09:37:28;;;;;;;22.77;21.10;;;19.70;99.90;;;;;;5069431;28;20204;-78
2021/09/30 09:39:55;;;;;;;21.95;20.58;;;19.50;99.90;;;;;;5069985;28;20223;-78
2021/09/30 09:42:29;;;;;;;18.75;17.65;;;19.20;99.90;;;;;;5075187;28;20229;-78
2021/09/30 09:44:57;;;;;;;43.83;41.22;;;18.70;99.90;;;;;;5079773;28;20219;-78
2021/09/30 09:47:26;;;;;;;45.10;42.13;;;18.30;99.90;;;;;;5072823;28;20629;-77
2021/09/30 09:50:17;;;;;;;32.25;30.20;;;18.00;99.90;;;;;;5067664;28;20204;-77
2021/09/30 09:52:54;;;;;;;224.27;212.18;;;17.80;99.90;;;;;;5071349;28;20255;-76
2021/09/30 09:55:23;;;;;;;248.05;234.55;;;17.60;99.90;;;;;;5073717;28;20222;-76
2021/09/30 09:58:04;;;;;;;271.38;256.42;;;17.40;99.90;;;;;;5071293;28;20233;-76
2021/09/30 10:00:33;;;;;;;254.70;240.93;;;17.20;99.90;;;;;;5074401;28;20207;-77
2021/09/30 10:05:09;;;;;;;327.98;308.38;;;17.20;99.90;;;;;;5115508;27;20591;-75
2021/09/30 10:07:37;;;;;;;303.55;285.73;;;17.40;99.90;;;;;;5106659;28;20201;-75
2021/09/30 10:10:05;;;;;;;295.00;277.75;;;17.70;99.90;;;;;;5108678;28;20217;-75
2021/09/30 10:12:32;;;;;;;294.83;277.77;;;18.00;99.90;;;;;;5103659;28;20202;-74
2021/09/30 10:15:08;;;;;;;262.65;248.07;;;18.20;99.90;;;;;;5106725;28;20657;-75
2021/09/30 10:17:35;;;;;;;300.08;281.95;;;18.50;99.90;;;;;;5103055;28;20205;-75
2021/09/30 10:20:03;;;;;;;247.30;233.95;;;18.50;99.90;;;;;;5105859;28;20641;-74
2021/09/30 10:22:32;;;;;;;246.07;232.80;;;18.50;99.90;;;;;;5115278;28;20272;-73
2021/09/30 10:24:59;;;;;;;259.27;244.93;;;18.40;99.90;;;;;;5109206;28;20225;-72
2021/09/30 10:27:27;;;;;;;249.60;235.68;;;18.50;99.90;;;;;;5106845;28;20207;-73
2021/09/30 10:29:54;;;;;;;254.65;240.30;;;18.40;99.90;;;;;;5102106;28;20210;-73
2021/09/30 10:32:24;;;;;;;271.02;255.85;;;18.40;99.90;;;;;;5107298;28;20252;-73
2021/09/30 10:34:57;;;;;;;258.42;244.18;;;18.20;99.90;;;;;;5114678;28;20339;-73
2021/09/30 10:37:26;;;;;;;271.05;255.98;;;18.00;99.90;;;;;;5119866;28;20255;-73
2021/09/30 10:40:17;;;;;;;286.08;269.52;;;17.90;99.90;;;;;;5113448;28;20209;-73
2021/09/30 10:42:53;;;;;;;269.77;254.68;;;17.80;99.90;;;;;;5104234;28;20208;-73
2021/09/30 10:45:22;;;;;;;293.95;276.73;;;17.90;99.90;;;;;;5116710;28;20201;-73
2021/09/30 10:47:49;;;;;;;262.83;248.00;;;17.70;99.90;;;;;;5114168;28;20259;-73
2021/09/30 10:50:17;;;;;;;294.45;277.15;;;17.50;99.90;;;;;;5108819;28;20206;-73
2021/09/30 10:52:52;;;;;;;267.95;252.85;;;17.50;99.90;;;;;;5116310;28;20207;-73
2021/09/30 10:55:32;;;;;;;288.95;272.25;;;17.60;99.90;;;;;;5113873;28;20205;-73
2021/09/30 10:58:01;;;;;;;291.27;274.67;;;17.60;99.90;;;;;;5113052;28;20207;-73
2021/09/30 11:00:55;;;;;;;310.02;291.88;;;17.50;99.90;;;;;;5103127;28;20261;-73
2021/09/30 11:03:26;;;;;;;302.60;284.80;;;17.40;99.90;;;;;;5101135;28;20238;-72
2021/09/30 11:06:15;;;;;;;269.05;254.13;;;17.40;99.90;;;;;;5106818;28;20225;-73
2021/09/30 11:08:47;;;;;;;281.80;266.20;;;17.20;99.90;;;;;;5110037;28;20265;-74
2021/09/30 11:11:22;;;;;;;276.83;261.25;;;17.20;99.90;;;;;;5102572;28;20226;-75
2021/09/30 11:14:04;;;;;;;282.45;266.02;;;17.10;99.90;;;;;;5101621;28;20316;-76
2021/09/30 11:16:37;;;;;;;318.00;299.40;;;17.10;99.90;;;;;;5092121;28;20197;-75
2021/09/30 11:19:05;;;;;;;289.10;272.77;;;17.00;99.90;;;;;;5090712;28;20739;-75
2021/09/30 11:21:45;;;;;;;291.35;274.67;;;16.90;99.90;;;;;;5094856;28;20209;-75
2021/09/30 11:24:26;;;;;;;311.98;293.58;;;16.80;99.90;;;;;;5098265;28;20230;-74
2021/09/30 11:27:18;;;;;;;293.23;276.60;;;16.90;99.90;;;;;;5090932;28;20223;-75
2021/09/30 11:29:47;;;;;;;299.08;280.98;;;17.00;99.90;;;;;;5088163;28;20211;-75
2021/09/30 11:32:24;;;;;;;303.85;286.17;;;17.10;99.90;;;;;;5088121;28;20238;-75
2021/09/30 11:34:52;;;;;;;274.63;259.48;;;17.20;99.90;;;;;;5094003;28;20213;-75
2021/09/30 11:37:24;;;;;;;300.23;283.20;;;17.40;99.90;;;;;;5094295;28;20214;-74
2021/09/30 11:39:54;;;;;;;275.30;260.10;;;17.50;99.90;;;;;;5095603;28;20220;-74
2021/09/30 11:42:25;;;;;;;282.35;266.58;;;17.40;99.90;;;;;;5088159;28;20225;-74
2021/09/30 11:45:01;;;;;;;301.95;284.65;;;17.30;99.90;;;;;;5092612;28;20216;-74
2021/09/30 11:47:30;;;;;;;278.73;263.30;;;17.10;99.90;;;;;;5088414;28;20213;-73
2021/09/30 11:49:58;;;;;;;283.63;267.65;;;17.00;99.90;;;;;;5094401;28;20194;-73
2021/09/30 11:52:27;;;;;;;300.35;283.08;;;16.90;99.90;;;;;;5102519;28;20206;-74
2021/09/30 11:54:54;;;;;;;311.23;293.13;;;16.90;99.90;;;;;;5090551;28;20218;-74
2021/09/30 11:57:26;;;;;;;316.05;297.30;;;17.00;99.90;;;;;;5101225;28;20650;-73
2021/09/30 12:00:07;;;;;;;251.23;237.75;;;17.10;99.90;;;;;;5088783;28;20670;-73
2021/09/30 12:02:34;;;;;;;291.75;275.00;;;17.20;99.90;;;;;;5092869;28;20197;-75
2021/09/30 12:07:46;;;;;;;249.07;235.25;;;17.20;99.90;;;;;;5087614;28;20211;-75
2021/09/30 12:10:15;;;;;;;289.05;272.60;;;17.20;99.90;;;;;;5090471;28;20202;-73
2021/09/30 12:12:45;;;;;;;298.27;281.25;;;17.20;99.90;;;;;;5087034;28;20224;-73
2021/09/30 12:15:13;;;;;;;284.42;268.13;;;17.30;99.90;;;;;;5087587;28;20214;-72
2021/09/30 12:17:42;;;;;;;269.45;254.07;;;17.30;99.90;;;;;;5087129;28;20654;-74
2021/09/30 12:20:11;;;;;;;264.13;249.57;;;17.30;99.90;;;;;;5087071;28;20625;-74
2021/09/30 12:22:40;;;;;;;274.58;259.05;;;17.30;99.90;;;;;;5096122;28;20213;-74
2021/09/30 12:25:10;;;;;;;285.13;268.80;;;17.30;99.90;;;;;;5095263;28;20224;-73
2021/09/30 12:27:39;;;;;;;265.25;250.65;;;17.30;99.90;;;;;;5088929;28;20211;-73
2021/09/30 12:30:10;;;;;;;268.13;253.43;;;17.30;99.90;;;;;;5092219;28;20313;-74
2021/09/30 12:32:43;;;;;;;269.75;254.77;;;17.20;99.90;;;;;;5092136;28;20770;-74
2021/09/30 12:35:17;;;;;;;271.35;256.27;;;17.10;99.90;;;;;;5094294;28;20248;-73
2021/09/30 12:37:47;;;;;;;262.52;247.82;;;17.10;99.90;;;;;;5086896;28;20213;-73
2021/09/30 12:40:19;;;;;;;265.95;250.65;;;17.10;99.90;;;;;;5092575;28;20205;-74
2021/09/30 12:43:05;;;;;;;276.17;260.00;;;17.10;99.90;;;;;;5086948;28;20193;-76
2021/09/30 12:45:36;;;;;;;277.55;262.17;;;17.20;99.90;;;;;;5092581;28;20230;-75
2021/09/30 12:48:08;;;;;;;303.95;286.52;;;17.20;99.90;;;;;;5093987;28;20233;-75
2021/09/30 12:50:42;;;;;;;271.58;256.10;;;17.20;99.90;;;;;;5087311;28;20210;-74
2021/09/30 12:53:11;;;;;;;267.30;252.27;;;17.10;99.90;;;;;;5090572;28;20287;-74
2021/09/30 12:55:38;;;;;;;261.58;247.40;;;17.10;99.90;;;;;;5089556;28;20654;-73
2021/09/30 12:58:06;;;;;;;276.70;261.02;;;17.00;99.90;;;;;;5085872;28;20203;-73
2021/09/30 13:00:37;;;;;;;264.92;250.18;;;16.90;99.90;;;;;;5091071;28;20239;-76
2021/09/30 13:03:15;;;;;;;239.30;226.25;;;16.90;99.90;;;;;;5087794;28;20245;-76
2021/09/30 13:05:49;;;;;;;279.13;262.88;;;17.00;99.90;;;;;;5092413;28;20281;-76
2021/09/30 13:08:39;;;;;;;270.05;254.88;;;17.00;99.90;;;;;;5085363;28;20219;-76
2021/09/30 13:11:23;;;;;;;290.77;274.23;;;16.90;99.90;;;;;;5090229;28;20204;-74
2021/09/30 13:14:15;;;;;;;247.20;233.38;;;17.00;99.90;;;;;;5089819;28;20206;-76
2021/09/30 13:16:45;;;;;;;265.67;250.57;;;17.00;99.90;;;;;;5087927;28;20202;-74
2021/09/30 13:19:12;;;;;;;268.60;253.80;;;17.10;99.90;;;;;;5092042;28;20244;-76
2021/09/30 13:22:00;;;;;;;287.10;270.73;;;17.10;99.90;;;;;;5090128;28;20203;-76
2021/09/30 13:24:27;;;;;;;240.40;227.48;;;17.10;99.90;;;;;;5087009;28;20272;-76
2021/09/30 13:26:56;;;;;;;242.88;229.82;;;17.00;99.90;;;;;;5093218;28;20207;-76
2021/09/30 13:29:23;;;;;;;276.60;260.58;;;17.00;99.90;;;;;;5085547;28;20290;-76
2021/09/30 13:31:52;;;;;;;247.90;234.05;;;16.90;99.90;;;;;;5085705;28;20211;-77
2021/09/30 13:34:19;;;;;;;273.30;257.42;;;16.90;99.90;;;;;;5092077;28;20227;-74
2021/09/30 13:36:46;;;;;;;260.48;246.23;;;16.90;99.90;;;;;;5087068;28;20211;-76
2021/09/30 13:39:14;;;;;;;252.40;238.35;;;16.90;99.90;;;;;;5094943;28;20662;-74
2021/09/30 13:41:41;;;;;;;259.55;245.60;;;17.00;99.90;;;;;;5094500;28;20270;-74
2021/09/30 13:44:08;;;;;;;246.52;233.57;;;16.90;99.90;;;;;;5090137;28;20226;-73
2021/09/30 13:46:35;;;;;;;218.13;206.48;;;16.90;99.90;;;;;;5088822;28;20198;-74
2021/09/30 13:49:03;;;;;;;231.35;218.80;;;16.90;99.90;;;;;;5091292;28;20240;-73
2021/09/30 13:51:31;;;;;;;205.15;194.80;;;16.80;99.90;;;;;;5084641;28;20732;-74
2021/09/30 13:53:59;;;;;;;251.15;237.35;;;16.80;99.90;;;;;;5096378;28;20213;-74
2021/09/30 13:56:28;;;;;;;243.70;230.75;;;16.90;99.90;;;;;;5095770;28;20198;-74
2021/09/30 13:58:55;;;;;;;210.95;200.05;;;17.00;99.90;;;;;;5085452;28;20930;-74
2021/09/30 14:01:22;;;;;;;207.18;196.27;;;17.10;99.90;;;;;;5098362;28;20225;-74
2021/09/30 14:03:49;;;;;;;233.88;221.38;;;17.10;99.90;;;;;;5096863;28;20211;-73
2021/09/30 14:06:18;;;;;;;200.98;190.40;;;17.10;99.90;;;;;;5101075;28;20270;-73
2021/09/30 14:08:45;;;;;;;239.52;226.82;;;17.10;99.90;;;;;;5085531;28;20210;-73
2021/09/30 14:11:14;;;;;;;231.85;219.45;;;17.10;99.90;;;;;;5085742;28;20202;-73
2021/09/30 14:13:42;;;;;;;230.98;218.70;;;17.10;99.90;;;;;;5091954;28;20207;-73
2021/09/30 14:16:10;;;;;;;249.05;235.60;;;17.10;99.90;;;;;;5099338;28;20203;-74
2021/09/30 14:18:37;;;;;;;234.73;222.40;;;17.10;99.90;;;;;;5097821;28;20202;-73
2021/09/30 14:21:04;;;;;;;245.85;232.95;;;17.10;99.90;;;;;;5098594;28;20197;-72
2021/09/30 14:23:33;;;;;;;256.75;242.65;;;17.10;99.90;;;;;;5090667;28;20224;-73
2021/09/30 14:26:01;;;;;;;229.10;216.85;;;16.90;99.90;;;;;;5093009;28;20230;-73
2021/09/30 14:28:29;;;;;;;263.25;248.73;;;16.80;99.90;;;;;;5100843;28;20229;-73
2021/09/30 14:30:56;;;;;;;273.40;258.15;;;16.70;99.90;;;;;;5089148;28;20193;-73
2021/09/30 14:33:25;;;;;;;264.17;249.25;;;16.70;99.90;;;;;;5090513;28;20285;-72
2021/09/30 14:35:52;;;;;;;273.98;258.13;;;16.60;99.90;;;;;;5095527;28;20208;-75
2021/09/30 14:38:19;;;;;;;264.65;249.45;;;16.60;99.90;;;;;;5091386;28;20262;-75
2021/09/30 14:40:50;;;;;;;265.60;251.25;;;16.70;99.90;;;;;;5099655;28;20204;-75
2021/09/30 14:43:17;;;;;;;242.25;229.10;;;16.60;99.90;;;;;;5097886;28;20236;-76
2021/09/30 14:45:45;;;;;;;248.50;234.43;;;16.60;99.90;;;;;;5096319;28;20250;-76
2021/09/30 14:48:12;;;;;;;255.23;241.63;;;16.70;99.90;;;;;;5089773;28;20306;-75
2021/09/30 14:50:40;;;;;;;254.55;241.10;;;16.50;99.90;;;;;;5101077;28;20193;-75
2021/09/30 14:53:07;;;;;;;255.30;241.25;;;16.50;99.90;;;;;;5103558;28;20202;-76
2021/09/30 14:55:34;;;;;;;275.25;259.77;;;16.50;99.90;;;;;;5101504;28;20209;-75
2021/09/30 14:58:11;;;;;;;264.92;250.07;;;16.40;99.90;;;;;;5102153;28;20201;-76
2021/09/30 15:03:26;;;;;;;247.45;234.13;;;16.40;99.90;;;;;;5093829;28;20604;-75
2021/09/30 15:05:53;;;;;;;236.70;224.38;;;16.40;99.90;;;;;;5092867;28;20230;-75
2021/09/30 15:08:22;;;;;;;246.15;233.10;;;16.40;99.90;;;;;;5092720;28;20201;-75
2021/09/30 15:10:49;;;;;;;239.88;227.13;;;16.40;99.90;;;;;;5095021;28;20210;-75
2021/09/30 15:16:14;;;;;;;227.88;216.20;;;16.40;99.90;;;;;;5099920;28;20198;-75
2021/09/30 15:18:52;;;;;;;268.25;253.30;;;16.40;99.90;;;;;;5090626;28;20206;-76
2021/09/30 15:21:23;;;;;;;258.58;244.50;;;16.30;99.90;;;;;;5087656;28;20203;-76
2021/09/30 15:23:53;;;;;;;267.92;253.07;;;16.30;99.90;;;;;;5088211;28;20207;-75